Time;durP1;ratioP1;P1;durP2;ratioP2;P2;SDS_P1;SDS_P2;PMS_P1;PMS_P2;Temp;Humidity;BMP_temperature;BMP_pressure;BME280_temperature;BME280_humidity;BME280_pressure;Samples;Min_cycle;Max_cycle;Signal;HPM_P1;HPM_P2
2024/02/15 00:00:16;;;;;;;4.00;2.20;;;;;;;8.99;100.00;101318.16;6100391;23;20227;-75
2024/02/15 00:02:44;;;;;;;2.20;2.00;;;;;;;9.01;100.00;101316.00;6089544;23;20186;-75
2024/02/15 00:05:12;;;;;;;3.40;2.20;;;;;;;9.01;100.00;101318.66;6099954;23;20182;-75
2024/02/15 00:07:39;;;;;;;5.27;2.50;;;;;;;9.01;100.00;101313.38;6063569;23;20190;-75
2024/02/15 00:10:08;;;;;;;2.40;2.20;;;;;;;9.00;100.00;101322.38;6099776;23;20173;-74
2024/02/15 00:12:34;;;;;;;2.60;2.20;;;;;;;8.98;100.00;101314.75;6100318;23;20162;-75
2024/02/15 00:15:00;;;;;;;5.37;4.03;;;;;;;8.98;100.00;101320.03;6099616;23;20165;-74
2024/02/15 00:17:29;;;;;;;3.03;2.23;;;;;;;8.97;100.00;101317.69;6100606;23;20681;-74
2024/02/15 00:19:56;;;;;;;3.90;2.10;;;;;;;8.95;100.00;101309.31;6100060;23;20676;-74
2024/02/15 00:22:24;;;;;;;4.00;2.17;;;;;;;8.94;100.00;101307.72;6099948;23;20170;-75
2024/02/15 00:24:50;;;;;;;2.40;2.20;;;;;;;8.93;100.00;101311.44;6099670;23;20182;-75
2024/02/15 00:27:17;;;;;;;3.23;1.80;;;;;;;8.92;100.00;101309.88;6099474;23;20445;-75
2024/02/15 00:29:43;;;;;;;3.53;2.23;;;;;;;8.91;100.00;101314.34;6098425;23;20196;-75
2024/02/15 00:32:11;;;;;;;2.37;2.00;;;;;;;8.91;100.00;101310.97;6099998;23;20168;-75
2024/02/15 00:34:38;;;;;;;4.03;2.23;;;;;;;8.90;100.00;101310.16;6099417;23;20162;-75
2024/02/15 00:37:04;;;;;;;3.77;2.27;;;;;;;8.91;100.00;101303.06;6099206;23;20169;-75
2024/02/15 00:39:32;;;;;;;2.47;2.27;;;;;;;8.90;100.00;101302.28;6099482;23;20488;-76
2024/02/15 00:42:00;;;;;;;2.87;2.57;;;;;;;8.89;100.00;101292.81;6100057;23;20162;-75
2024/02/15 00:44:26;;;;;;;3.50;2.27;;;;;;;8.89;100.00;101295.44;6098913;23;20216;-75
2024/02/15 00:46:55;;;;;;;2.50;2.13;;;;;;;8.90;100.00;101298.88;6099237;23;20188;-75
2024/02/15 00:49:22;;;;;;;2.37;2.17;;;;;;;8.88;100.00;101298.38;6062924;23;20261;-75
2024/02/15 00:51:49;;;;;;;3.37;2.33;;;;;;;8.87;100.00;101305.50;6099268;23;20174;-75
2024/02/15 00:54:16;;;;;;;2.40;2.00;;;;;;;8.85;100.00;101296.34;6100825;23;20162;-75
2024/02/15 00:56:44;;;;;;;4.40;2.17;;;;;;;8.83;100.00;101296.63;6102070;23;20162;-76
2024/02/15 00:59:10;;;;;;;2.87;2.17;;;;;;;8.82;100.00;101299.56;6101845;23;20264;-75
2024/02/15 01:01:37;;;;;;;4.20;2.10;;;;;;;8.80;100.00;101296.47;6102280;23;20511;-75
2024/02/15 01:04:04;;;;;;;2.37;2.10;;;;;;;8.80;100.00;101307.00;6102175;23;20215;-75
2024/02/15 01:06:30;;;;;;;2.10;1.90;;;;;;;8.78;100.00;101294.13;6101768;23;20224;-75
2024/02/15 01:09:01;;;;;;;3.43;2.43;;;;;;;8.76;100.00;101285.72;6101600;23;20185;-75
2024/02/15 01:11:28;;;;;;;2.53;2.30;;;;;;;8.75;100.00;101297.31;6102637;23;20254;-75
2024/02/15 01:13:56;;;;;;;3.13;2.20;;;;;;;8.76;100.00;101282.31;6102510;23;20173;-75
2024/02/15 01:16:22;;;;;;;3.20;2.53;;;;;;;8.76;100.00;101288.34;6101899;23;20171;-75
2024/02/15 01:18:48;;;;;;;2.60;2.20;;;;;;;8.75;100.00;101288.66;6101732;23;20189;-74
2024/02/15 01:21:15;;;;;;;3.70;2.37;;;;;;;8.76;100.00;101287.59;6102395;23;20166;-76
2024/02/15 01:23:41;;;;;;;2.47;2.27;;;;;;;8.75;100.00;101278.13;6101995;23;20543;-75
2024/02/15 01:26:08;;;;;;;3.27;2.53;;;;;;;8.74;100.00;101285.25;6101702;23;20219;-76
2024/02/15 01:28:34;;;;;;;2.67;2.30;;;;;;;8.76;100.00;101287.59;6066432;23;20480;-76
2024/02/15 01:31:02;;;;;;;2.50;2.30;;;;;;;8.75;100.00;101289.44;6101751;23;20176;-75
2024/02/15 01:33:28;;;;;;;3.93;2.80;;;;;;;8.77;100.00;101289.13;6101495;23;20169;-75
2024/02/15 01:35:56;;;;;;;2.57;2.37;;;;;;;8.77;100.00;101289.13;6101913;23;20248;-75
2024/02/15 01:38:22;;;;;;;3.00;2.30;;;;;;;8.78;100.00;101282.78;6101890;23;20220;-75
2024/02/15 01:40:49;;;;;;;3.03;2.20;;;;;;;8.78;100.00;101280.94;6101597;23;20575;-76
2024/02/15 01:43:15;;;;;;;2.67;2.47;;;;;;;8.80;100.00;101281.41;6101750;23;20166;-75
2024/02/15 01:45:42;;;;;;;3.50;2.53;;;;;;;8.80;100.00;101276.16;6101690;23;20526;-76
2024/02/15 01:48:10;;;;;;;3.13;2.80;;;;;;;8.82;100.00;101274.03;6101711;23;20196;-75
2024/02/15 01:50:37;;;;;;;4.30;2.80;;;;;;;8.84;100.00;101282.38;6101460;23;20172;-76
2024/02/15 01:53:08;;;;;;;2.80;2.50;;;;;;;8.87;100.00;101278.38;6099332;23;20279;-75
2024/02/15 01:55:35;;;;;;;3.30;2.83;;;;;;;8.88;100.00;101279.94;6098862;23;20165;-76
2024/02/15 01:58:02;;;;;;;3.00;2.70;;;;;;;8.90;100.00;101269.91;6097857;23;20182;-75
2024/02/15 02:00:29;;;;;;;5.13;2.83;;;;;;;8.90;100.00;101275.94;6098710;23;20166;-75
2024/02/15 02:03:02;;;;;;;3.10;2.80;;;;;;;8.92;100.00;101271.16;6064255;23;20205;-75
2024/02/15 02:05:30;;;;;;;3.93;3.50;;;;;;;8.95;100.00;101264.53;6097533;23;20182;-75
2024/02/15 02:07:59;;;;;;;3.67;2.83;;;;;;;8.96;100.00;101271.34;6097308;23;20652;-75
2024/02/15 02:10:26;;;;;;;3.00;2.70;;;;;;;8.97;100.00;101268.41;6098402;23;20169;-75
2024/02/15 02:12:53;;;;;;;4.30;2.97;;;;;;;8.99;100.00;101271.53;6098694;23;20185;-75
2024/02/15 02:15:19;;;;;;;3.00;2.70;;;;;;;9.01;100.00;101265.97;6098614;23;20224;-75
2024/02/15 02:17:49;;;;;;;5.00;3.07;;;;;;;9.02;100.00;101270.94;6099027;23;20248;-76
2024/02/15 02:20:16;;;;;;;2.77;2.40;;;;;;;9.05;100.00;101270.34;6062800;23;20173;-75
2024/02/15 02:22:47;;;;;;;4.63;2.53;;;;;;;9.07;100.00;101264.78;6098591;23;20237;-75
2024/02/15 02:25:16;;;;;;;3.30;2.83;;;;;;;9.08;100.00;101263.69;6098272;23;20201;-75
2024/02/15 02:27:42;;;;;;;2.93;2.73;;;;;;;9.09;100.00;101265.25;6098175;23;20201;-76
2024/02/15 02:30:15;;;;;;;3.50;2.70;;;;;;;9.10;100.00;101261.53;6097731;23;20168;-75
2024/02/15 02:32:41;;;;;;;4.40;2.80;;;;;;;9.11;100.00;101266.50;6098788;23;20174;-75
2024/02/15 02:35:11;;;;;;;5.43;2.70;;;;;;;9.12;100.00;101262.78;6098566;23;20173;-75
2024/02/15 02:37:38;;;;;;;3.07;2.30;;;;;;;9.14;100.00;101254.59;6098948;23;20190;-75
2024/02/15 02:40:07;;;;;;;3.77;2.20;;;;;;;9.16;100.00;101262.97;6063115;23;20496;-75
2024/02/15 02:42:35;;;;;;;4.43;2.70;;;;;;;9.17;100.00;101261.91;6063899;23;20174;-76
2024/02/15 02:45:05;;;;;;;4.27;2.80;;;;;;;9.18;100.00;101264.25;6097941;23;20756;-76
2024/02/15 02:47:34;;;;;;;4.23;2.40;;;;;;;9.19;100.00;101260.53;6096675;23;20209;-75
2024/02/15 02:50:00;;;;;;;2.47;2.27;;;;;;;9.19;100.00;101257.91;6098460;23;20520;-75
2024/02/15 02:52:27;;;;;;;2.90;2.70;;;;;;;9.20;100.00;101254.16;6099977;23;20511;-75
2024/02/15 02:54:53;;;;;;;2.63;2.43;;;;;;;9.22;100.00;101259.91;6100067;23;20166;-75
2024/02/15 02:57:20;;;;;;;3.30;3.00;;;;;;;9.23;100.00;101261.50;6100476;23;20186;-75
2024/02/15 02:59:48;;;;;;;2.63;2.40;;;;;;;9.23;100.00;101258.84;6099154;23;20177;-76
2024/02/15 03:02:14;;;;;;;2.43;2.23;;;;;;;9.23;100.00;101253.59;6100368;23;20174;-76
2024/02/15 03:04:40;;;;;;;3.60;2.27;;;;;;;9.23;100.00;101253.59;6095427;23;20174;-75
2024/02/15 03:07:07;;;;;;;4.63;2.80;;;;;;;9.25;100.00;101267.22;6063524;23;20178;-75
2024/02/15 03:09:33;;;;;;;2.73;2.53;;;;;;;9.26;100.00;101258.25;6099474;23;20177;-75
2024/02/15 03:12:01;;;;;;;8.40;2.83;;;;;;;9.27;100.00;101264.31;6100841;23;20168;-75
2024/02/15 03:14:30;;;;;;;3.50;2.87;;;;;;;9.28;100.00;101264.00;6099968;23;20174;-75
2024/02/15 03:16:57;;;;;;;2.70;2.50;;;;;;;9.28;100.00;101261.38;6064803;23;20175;-75
2024/02/15 03:19:24;;;;;;;2.60;2.40;;;;;;;9.28;100.00;101258.75;6099302;23;20166;-75
2024/02/15 03:21:53;;;;;;;4.40;3.00;;;;;;;9.29;100.00;101264.78;6100046;23;20173;-75
2024/02/15 03:24:19;;;;;;;4.07;3.17;;;;;;;9.30;100.00;101261.06;6099402;23;20169;-75
2024/02/15 03:26:45;;;;;;;7.03;2.97;;;;;;;9.30;100.00;101269.75;6100287;23;20182;-76
2024/02/15 03:29:12;;;;;;;3.07;2.77;;;;;;;9.29;100.00;101265.56;6098935;23;20188;-75
2024/02/15 03:31:38;;;;;;;2.80;2.60;;;;;;;9.28;100.00;101263.22;6064666;23;20184;-76
2024/02/15 03:34:06;;;;;;;5.83;2.70;;;;;;;9.28;100.00;101271.91;6099356;23;20181;-75
2024/02/15 03:36:33;;;;;;;3.10;2.90;;;;;;;9.28;100.00;101268.50;6065157;23;20173;-75
2024/02/15 03:38:59;;;;;;;3.47;2.77;;;;;;;9.27;100.00;101267.69;6100408;23;20193;-75
2024/02/15 03:41:30;;;;;;;9.17;3.10;;;;;;;9.27;100.00;101274.84;6097989;23;20345;-75
2024/02/15 03:43:58;;;;;;;3.20;2.90;;;;;;;9.27;100.00;101272.22;6064371;23;20181;-75
2024/02/15 03:46:24;;;;;;;2.73;2.43;;;;;;;9.25;100.00;101274.34;6097947;23;20218;-75
2024/02/15 03:48:50;;;;;;;7.03;3.80;;;;;;;9.24;100.00;101268.31;6063806;23;20284;-74
2024/02/15 03:51:20;;;;;;;4.23;3.00;;;;;;;9.23;100.00;101266.75;6098533;23;20508;-74
2024/02/15 03:53:48;;;;;;;4.47;2.90;;;;;;;9.22;100.00;101265.19;6100035;23;20624;-75
2024/02/15 03:56:14;;;;;;;3.57;2.87;;;;;;;9.21;100.00;101262.88;6098041;23;20193;-75
2024/02/15 03:58:41;;;;;;;3.37;3.00;;;;;;;9.20;100.00;101267.34;6099400;23;20186;-75
2024/02/15 04:01:09;;;;;;;3.97;3.17;;;;;;;9.20;100.00;101269.97;6098721;23;20166;-75
2024/02/15 04:03:36;;;;;;;3.87;3.40;;;;;;;9.19;100.00;101276.34;6099055;23;20473;-75
2024/02/15 04:06:03;;;;;;;3.97;3.17;;;;;;;9.19;100.00;101271.06;6099030;23;20182;-75
2024/02/15 04:08:31;;;;;;;3.90;3.50;;;;;;;9.17;100.00;101275.84;6063358;23;20267;-75
2024/02/15 04:10:57;;;;;;;3.67;3.30;;;;;;;9.17;100.00;101272.44;6099025;23;20646;-75
2024/02/15 04:13:24;;;;;;;5.07;3.13;;;;;;;9.17;100.00;101275.84;6099793;23;20175;-76
2024/02/15 04:15:52;;;;;;;3.57;3.23;;;;;;;9.16;100.00;101276.16;6098218;23;20193;-75
2024/02/15 04:18:19;;;;;;;4.53;3.10;;;;;;;9.15;100.00;101275.38;6099937;23;20213;-75
2024/02/15 04:20:46;;;;;;;3.87;3.07;;;;;;;9.17;100.00;101278.47;6099475;23;20178;-75
2024/02/15 04:23:13;;;;;;;4.77;3.63;;;;;;;9.17;100.00;101270.56;6100176;23;20225;-75
2024/02/15 04:25:40;;;;;;;3.53;2.97;;;;;;;9.17;100.00;101269.81;6099827;23;20185;-76
2024/02/15 04:28:08;;;;;;;4.53;4.00;;;;;;;9.15;100.00;101275.38;6099677;23;20285;-75
2024/02/15 04:30:38;;;;;;;4.57;4.10;;;;;;;9.17;100.00;101267.19;6099712;23;20213;-75
2024/02/15 04:33:07;;;;;;;4.30;3.60;;;;;;;9.15;100.00;101267.47;6099953;23;20166;-75
2024/02/15 04:35:35;;;;;;;5.33;4.30;;;;;;;9.16;100.00;101274.28;6099034;23;20158;-75
2024/02/15 04:38:03;;;;;;;5.67;3.67;;;;;;;9.15;100.00;101267.47;6064022;23;20196;-75
2024/02/15 04:40:30;;;;;;;4.60;3.50;;;;;;;9.14;100.00;101265.91;6099487;23;20166;-76
2024/02/15 04:42:58;;;;;;;4.30;3.67;;;;;;;9.15;100.00;101271.94;6099308;23;20166;-75
2024/02/15 04:45:25;;;;;;;4.73;3.87;;;;;;;9.14;100.00;101273.81;6098877;23;20245;-75
2024/02/15 04:47:53;;;;;;;4.53;3.50;;;;;;;9.15;100.00;101272.72;6063689;23;20217;-76
2024/02/15 04:50:20;;;;;;;4.67;3.50;;;;;;;9.14;100.00;101273.81;6064097;23;20166;-75
2024/02/15 04:52:49;;;;;;;4.03;3.63;;;;;;;9.15;100.00;101277.22;6099764;23;20311;-76
2024/02/15 04:55:17;;;;;;;4.10;3.53;;;;;;;9.14;100.00;101281.72;6098484;23;20174;-75
2024/02/15 04:57:44;;;;;;;4.70;3.53;;;;;;;9.15;100.00;101274.59;6064021;23;20241;-75
2024/02/15 05:00:15;;;;;;;4.70;3.83;;;;;;;9.17;100.00;101277.72;6099045;23;20234;-75
2024/02/15 05:02:44;;;;;;;5.83;3.47;;;;;;;9.17;100.00;101275.06;6099384;23;20162;-76
2024/02/15 05:05:12;;;;;;;3.80;3.40;;;;;;;9.17;100.00;101277.72;6098373;23;20166;-76
2024/02/15 05:07:39;;;;;;;4.33;3.83;;;;;;;9.17;100.00;101275.06;6098297;23;20456;-75
2024/02/15 05:10:07;;;;;;;6.23;4.10;;;;;;;9.18;100.00;101277.41;6098714;23;20174;-76
2024/02/15 05:12:34;;;;;;;6.43;4.07;;;;;;;9.19;100.00;101278.19;6098670;23;20234;-75
2024/02/15 05:15:01;;;;;;;4.80;4.30;;;;;;;9.18;100.00;101281.91;6098073;23;20521;-76
2024/02/15 05:17:29;;;;;;;4.33;3.93;;;;;;;9.19;100.00;101276.34;6099044;23;20189;-76
2024/02/15 05:19:58;;;;;;;4.20;3.77;;;;;;;9.20;100.00;101285.00;6063795;23;20184;-76
2024/02/15 05:22:28;;;;;;;4.73;4.17;;;;;;;9.20;100.00;101282.38;6063522;23;21068;-75
2024/02/15 05:24:55;;;;;;;5.00;4.50;;;;;;;9.21;100.00;101283.94;6097440;23;20233;-76
2024/02/15 05:27:23;;;;;;;6.97;3.90;;;;;;;9.21;100.00;101289.97;6098484;23;20194;-75
2024/02/15 05:29:52;;;;;;;5.27;4.77;;;;;;;9.22;100.00;101272.31;6098918;23;20173;-75
2024/02/15 05:32:20;;;;;;;7.50;4.57;;;;;;;9.22;100.00;101281.00;6088371;23;20229;-75
2024/02/15 05:34:50;;;;;;;4.90;4.37;;;;;;;9.21;100.00;101279.44;6098843;23;20193;-76
2024/02/15 05:37:16;;;;;;;5.43;4.60;;;;;;;9.23;100.00;101287.84;6097597;23;20189;-75
2024/02/15 05:39:43;;;;;;;6.17;5.47;;;;;;;9.24;100.00;101284.13;6098140;23;20198;-76
2024/02/15 05:42:10;;;;;;;4.90;4.37;;;;;;;9.23;100.00;101287.84;6097900;23;20169;-75
2024/02/15 05:44:36;;;;;;;4.30;3.90;;;;;;;9.24;100.00;101280.69;6098442;23;20170;-76
2024/02/15 05:47:03;;;;;;;6.80;4.57;;;;;;;9.25;100.00;101287.53;6098062;23;20186;-75
2024/02/15 05:49:29;;;;;;;6.60;4.73;;;;;;;9.25;100.00;101282.25;6097185;23;20191;-76
2024/02/15 05:51:57;;;;;;;8.70;6.43;;;;;;;9.26;100.00;101278.56;6098271;23;20249;-76
2024/02/15 05:54:23;;;;;;;6.83;5.13;;;;;;;9.27;100.00;101288.03;6095882;23;20174;-76
2024/02/15 05:56:51;;;;;;;8.40;5.60;;;;;;;9.27;100.00;101282.75;6099225;23;20515;-75
2024/02/15 05:59:20;;;;;;;5.33;4.80;;;;;;;9.26;100.00;101289.88;6097527;23;20189;-76
2024/02/15 06:01:48;;;;;;;5.90;4.73;;;;;;;9.27;100.00;101282.75;6094292;23;20576;-76
2024/02/15 06:04:14;;;;;;;5.03;4.50;;;;;;;9.28;100.00;101281.66;6094797;23;20250;-76
2024/02/15 06:06:41;;;;;;;6.00;4.90;;;;;;;9.28;100.00;101282.47;6096017;23;20217;-75
2024/02/15 06:09:09;;;;;;;5.47;4.50;;;;;;;9.28;100.00;101295.63;6096767;23;20694;-75
2024/02/15 06:11:37;;;;;;;4.97;4.47;;;;;;;9.29;100.00;101296.41;6062008;23;20174;-76
2024/02/15 06:14:03;;;;;;;5.37;4.47;;;;;;;9.29;100.00;101304.31;6062798;23;20186;-76
2024/02/15 06:16:29;;;;;;;5.97;4.90;;;;;;;9.28;100.00;101298.28;6097956;23;20166;-76
2024/02/15 06:18:56;;;;;;;5.80;5.20;;;;;;;9.28;100.00;101306.19;6098814;23;20196;-76
2024/02/15 06:21:23;;;;;;;5.33;4.73;;;;;;;9.29;100.00;101304.31;6099134;23;20237;-75
2024/02/15 06:23:50;;;;;;;6.40;5.13;;;;;;;9.30;100.00;101308.50;6099973;23;20256;-76
2024/02/15 06:26:18;;;;;;;6.70;5.67;;;;;;;9.31;100.00;101307.44;6098302;23;20214;-76
2024/02/15 06:39:41;;;;;;;10.03;7.00;;;;;;;9.33;100.00;101318.44;6101289;23;20686;-76
2024/02/15 06:42:11;;;;;;;9.27;6.57;;;;;;;9.33;100.00;101327.16;6101788;23;20193;-76
2024/02/15 06:44:40;;;;;;;7.43;6.30;;;;;;;9.34;100.00;101328.69;6066192;23;20217;-76
2024/02/15 06:47:06;;;;;;;7.27;6.00;;;;;;;9.34;100.00;101323.44;6101403;23;20278;-76
2024/02/15 06:49:33;;;;;;;8.23;6.40;;;;;;;9.35;100.00;101324.19;6101341;23;20166;-76
2024/02/15 06:52:02;;;;;;;9.00;7.20;;;;;;;9.35;100.00;101326.81;6102651;23;20190;-76
2024/02/15 06:54:29;;;;;;;8.03;6.87;;;;;;;9.37;100.00;101332.59;6101473;23;20447;-76
2024/02/15 06:56:58;;;;;;;10.53;7.97;;;;;;;9.37;100.00;101327.31;6102043;23;20192;-76
2024/02/15 06:59:29;;;;;;;8.90;7.47;;;;;;;9.38;100.00;101324.38;6101071;23;20186;-75
2024/02/15 07:01:55;;;;;;;9.20;7.30;;;;;;;9.40;100.00;101330.13;6064092;23;20226;-76
2024/02/15 07:04:23;;;;;;;11.13;7.67;;;;;;;9.42;100.00;101330.59;6098729;23;20171;-76
2024/02/15 07:06:49;;;;;;;8.67;7.73;;;;;;;9.43;100.00;101326.13;6100291;23;20178;-75
2024/02/15 07:09:17;;;;;;;10.87;7.17;;;;;;;9.44;100.00;101323.19;6099979;23;20190;-75
2024/02/15 07:11:44;;;;;;;10.57;8.00;;;;;;;9.46;100.00;101323.66;6100589;23;20214;-75
2024/02/15 07:14:10;;;;;;;12.87;9.90;;;;;;;9.49;100.00;101327.56;6100167;23;20628;-76
2024/02/15 07:16:38;;;;;;;12.03;9.33;;;;;;;9.52;100.00;101326.97;6100998;23;20501;-76
2024/02/15 07:19:05;;;;;;;12.43;9.43;;;;;;;9.53;100.00;101317.97;6101822;23;20186;-76
2024/02/15 07:21:31;;;;;;;15.20;9.47;;;;;;;9.56;100.00;101323.41;6066484;23;20691;-75
2024/02/15 07:23:58;;;;;;;17.10;10.60;;;;;;;9.58;100.00;101317.84;6101773;23;20162;-75
2024/02/15 07:26:25;;;;;;;17.33;10.13;;;;;;;9.60;100.00;101321.75;6101080;23;20225;-76
2024/02/15 07:28:53;;;;;;;11.57;8.70;;;;;;;9.63;100.00;101323.78;6100822;23;20210;-75
2024/02/15 07:31:21;;;;;;;12.07;8.83;;;;;;;9.64;100.00;101324.56;6100355;23;20170;-76
2024/02/15 07:33:48;;;;;;;11.57;8.37;;;;;;;9.67;100.00;101334.50;6065532;23;20174;-76
2024/02/15 07:36:19;;;;;;;15.50;11.60;;;;;;;9.69;100.00;101335.00;6100981;23;20272;-76
2024/02/15 07:38:45;;;;;;;11.57;8.90;;;;;;;9.72;100.00;101342.28;6101599;23;20191;-76
2024/02/15 07:41:12;;;;;;;17.50;11.90;;;;;;;9.74;100.00;101346.19;6100748;23;20258;-76
2024/02/15 07:43:39;;;;;;;16.67;11.83;;;;;;;9.76;100.00;101354.59;6065483;23;20548;-76
2024/02/15 07:46:05;;;;;;;15.80;11.27;;;;;;;9.79;100.00;101353.19;6100410;23;20663;-76
2024/02/15 07:48:32;;;;;;;13.97;8.60;;;;;;;9.82;100.00;101345.47;6100575;23;20526;-76
2024/02/15 07:50:59;;;;;;;12.60;8.87;;;;;;;9.85;100.00;101344.88;6100206;23;20215;-76
2024/02/15 07:53:26;;;;;;;10.50;8.13;;;;;;;9.89;100.00;101358.22;6099789;23;20173;-76
2024/02/15 07:55:52;;;;;;;13.27;9.00;;;;;;;9.92;100.00;101355.75;6100932;23;20170;-76
2024/02/15 07:58:19;;;;;;;12.83;8.70;;;;;;;9.99;100.00;101357.97;6100369;23;20572;-75
2024/02/15 08:00:46;;;;;;;13.93;8.63;;;;;;;10.03;100.00;101343.09;6101525;23;20181;-76
2024/02/15 08:03:14;;;;;;;13.80;9.20;;;;;;;10.08;100.00;101350.91;6099740;23;20178;-76
2024/02/15 08:05:40;;;;;;;15.10;8.80;;;;;;;10.13;100.00;101343.66;6099873;23;20251;-76
2024/02/15 08:08:09;;;;;;;10.90;8.57;;;;;;;10.18;100.00;101340.88;6098200;23;20196;-76
2024/02/15 08:10:35;;;;;;;12.40;8.43;;;;;;;10.25;100.00;101335.94;6063841;23;20522;-76
2024/02/15 08:13:01;;;;;;;11.60;8.40;;;;;;;10.34;100.00;101338.59;6100913;23;20634;-76
2024/02/15 08:15:28;;;;;;;12.13;8.40;;;;;;;10.40;100.00;101343.44;6099687;23;20682;-76
2024/02/15 08:17:55;;;;;;;11.47;8.30;;;;;;;10.45;100.00;101340.66;6100363;23;20194;-75
2024/02/15 08:20:22;;;;;;;10.63;8.67;;;;;;;10.50;100.00;101335.25;6100635;23;20195;-76
2024/02/15 08:22:48;;;;;;;11.00;7.47;;;;;;;10.56;100.00;101326.09;6100269;23;20166;-76
2024/02/15 08:25:17;;;;;;;12.00;8.40;;;;;;;10.64;100.00;101327.22;6099372;23;20630;-76
2024/02/15 08:27:49;;;;;;;28.63;17.23;;;;;;;10.70;100.00;101329.41;6100696;23;20200;-76
2024/02/15 08:30:17;;;;;;;19.73;13.13;;;;;;;10.77;100.00;101332.34;6099960;23;20240;-75
2024/02/15 08:32:45;;;;;;;10.93;8.83;;;;;;;10.84;100.00;101334.56;6100672;23;20179;-76
2024/02/15 08:35:15;;;;;;;8.53;6.70;;;;;;;10.86;100.00;101329.72;6100433;23;20550;-76
2024/02/15 08:37:43;;;;;;;9.07;6.80;;;;;;;10.91;100.00;101334.88;6064845;23;20205;-75
2024/02/15 08:40:11;;;;;;;8.03;6.37;;;;;;;10.95;100.00;101341.09;6099729;23;20687;-76
2024/02/15 08:42:40;;;;;;;7.47;6.23;;;;;;;11.00;100.00;101344.38;6100939;23;20174;-76
2024/02/15 08:45:09;;;;;;;8.60;6.67;;;;;;;11.06;100.00;101339.72;6099600;23;20172;-75
2024/02/15 08:47:37;;;;;;;6.37;5.50;;;;;;;11.12;100.00;101349.06;6099597;23;20604;-75
2024/02/15 08:50:04;;;;;;;5.97;4.60;;;;;;;11.15;100.00;101349.22;6099636;23;20252;-76
2024/02/15 08:52:30;;;;;;;4.63;4.13;;;;;;;11.21;100.00;101352.47;6100554;23;20193;-76
2024/02/15 08:54:58;;;;;;;7.57;4.40;;;;;;;11.25;100.00;101348.91;6100668;23;20180;-76
2024/02/15 08:57:26;;;;;;;4.80;3.83;;;;;;;11.29;100.00;101341.13;6089199;23;20909;-76
2024/02/15 08:59:54;;;;;;;4.00;3.60;;;;;;;11.38;100.00;101339.28;6099459;23;20170;-75
2024/02/15 09:02:21;;;;;;;5.53;4.07;;;;;;;11.45;100.00;101342.97;6099604;23;20190;-76
2024/02/15 09:04:47;;;;;;;3.90;3.20;;;;;;;11.53;100.00;101341.41;6099876;23;20630;-75
2024/02/15 09:07:14;;;;;;;3.17;2.67;;;;;;;11.57;100.00;101337.84;6097923;23;20186;-76
2024/02/15 09:09:40;;;;;;;3.10;2.80;;;;;;;11.64;100.00;101340.06;6100126;23;20166;-76
2024/02/15 09:12:07;;;;;;;2.67;2.47;;;;;;;11.73;100.00;101348.75;6100290;23;20201;-75
2024/02/15 09:14:34;;;;;;;2.60;2.23;;;;;;;11.83;100.00;101343.91;6099050;23;20177;-76
2024/02/15 09:17:07;;;;;;;3.40;3.10;;;;;;;11.91;100.00;101339.69;6098803;23;20162;-76
2024/02/15 09:19:33;;;;;;;2.27;2.07;;;;;;;11.96;100.00;101332.34;6063696;23;20426;-76
2024/02/15 09:21:59;;;;;;;2.43;2.20;;;;;;;12.03;100.00;101342.44;6099890;23;20173;-75
2024/02/15 09:24:26;;;;;;;2.90;1.70;;;;;;;12.07;100.00;101346.78;6098415;23;20536;-76
2024/02/15 09:26:52;;;;;;;1.90;1.77;;;;;;;12.10;100.00;101340.09;6064034;23;20201;-76
2024/02/15 09:29:19;;;;;;;1.87;1.57;;;;;;;12.13;100.00;101342.91;6099647;23;20186;-76
2024/02/15 09:31:47;;;;;;;1.40;1.30;;;;;;;12.17;100.00;101332.44;6099508;23;20174;-76
2024/02/15 09:34:14;;;;;;;2.07;1.70;;;;;;;12.22;100.00;101334.91;6064244;23;20180;-76
2024/02/15 09:36:41;;;;;;;1.90;1.70;;;;;;;12.24;100.00;101332.72;6099521;23;20170;-76
2024/02/15 09:39:07;;;;;;;2.57;1.93;;;;;;;12.28;100.00;101339.72;6064497;23;20257;-75
2024/02/15 09:41:34;;;;;;;2.20;1.90;;;;;;;12.34;100.00;101342.97;6100058;23;20173;-76
2024/02/15 09:44:03;;;;;;;2.10;1.90;;;;;;;12.39;100.00;101350.72;6099366;23;20166;-76
2024/02/15 09:46:31;;;;;;;1.60;1.50;;;;;;;12.42;100.00;101348.22;6064235;23;20188;-76
2024/02/15 09:48:59;;;;;;;1.63;1.53;;;;;;;12.43;100.00;101343.72;6099942;23;20273;-76
2024/02/15 09:51:27;;;;;;;2.93;2.50;;;;;;;12.46;100.00;101348.34;6098249;23;20181;-74
2024/02/15 09:53:57;;;;;;;2.53;2.00;;;;;;;12.51;100.00;101345.53;6099089;23;20166;-75
2024/02/15 09:56:28;;;;;;;4.37;2.20;;;;;;;12.52;100.00;101342.56;6100178;23;20496;-74
2024/02/15 09:58:55;;;;;;;2.97;2.10;;;;;;;12.55;100.00;101343.78;6100369;23;20182;-74
2024/02/15 10:01:24;;;;;;;1.50;1.40;;;;;;;12.55;100.00;101355.19;6100918;23;20162;-74
2024/02/15 10:03:51;;;;;;;1.40;1.30;;;;;;;12.57;100.00;101354.88;6101986;23;20173;-74
2024/02/15 10:06:17;;;;;;;2.03;1.63;;;;;;;12.59;100.00;101352.66;6101336;23;20499;-74
2024/02/15 10:08:46;;;;;;;3.37;2.80;;;;;;;12.60;100.00;101355.00;6102156;23;20200;-74
2024/02/15 10:11:13;;;;;;;3.10;1.60;;;;;;;12.62;100.00;101349.41;6102144;23;20167;-74
2024/02/15 10:13:40;;;;;;;3.00;2.70;;;;;;;12.62;100.00;101350.16;6100794;23;20162;-74
2024/02/15 10:16:18;;;;;;;1.53;1.30;;;;;;;12.65;100.00;101356.69;6102301;23;20169;-74
2024/02/15 10:18:44;;;;;;;1.60;1.47;;;;;;;12.67;100.00;101344.66;6102987;23;20242;-74
2024/02/15 10:21:11;;;;;;;1.60;1.30;;;;;;;12.70;100.00;101354.63;6103079;23;20171;-74
2024/02/15 10:23:38;;;;;;;1.77;1.20;;;;;;;12.74;100.00;101352.88;6101991;23;20175;-74
2024/02/15 10:26:23;;;;;;;1.40;1.20;;;;;;;12.78;100.00;101345.84;6066438;23;20170;-74
2024/02/15 10:29:07;;;;;;;1.40;1.30;;;;;;;12.83;100.00;101348.31;6101894;23;20630;-76
2024/02/15 10:31:33;;;;;;;2.37;1.20;;;;;;;12.89;100.00;101346.25;6101863;23;20564;-76
2024/02/15 10:34:04;;;;;;;2.90;1.30;;;;;;;12.93;100.00;101347.19;6101976;23;20176;-76
2024/02/15 10:36:33;;;;;;;1.13;0.90;;;;;;;12.98;100.00;101350.44;6102071;23;20173;-76
2024/02/15 10:39:12;;;;;;;1.27;0.90;;;;;;;13.04;100.00;101348.38;6101995;23;20235;-76
2024/02/15 10:41:41;;;;;;;1.07;0.90;;;;;;;13.08;100.00;101346.63;6102209;23;20512;-75
2024/02/15 10:44:08;;;;;;;0.73;0.73;;;;;;;13.13;100.00;101349.84;6102110;23;20169;-76
2024/02/15 10:46:36;;;;;;;1.47;1.00;;;;;;;13.17;100.00;101347.34;6101612;23;20433;-76
2024/02/15 10:49:02;;;;;;;1.00;0.90;;;;;;;13.21;100.00;101354.34;6101866;23;20659;-76
2024/02/15 10:51:29;;;;;;;0.97;0.90;;;;;;;13.27;100.00;101349.59;6102003;23;20559;-76
2024/02/15 10:54:04;;;;;;;0.80;0.80;;;;;;;13.30;100.00;101355.03;6101928;23;20192;-76
2024/02/15 10:56:39;;;;;;;0.90;0.90;;;;;;;13.33;100.00;101357.03;6067112;23;20181;-76
2024/02/15 10:59:13;;;;;;;1.57;1.30;;;;;;;13.34;100.00;101342.66;6101634;23;20534;-76
2024/02/15 11:01:41;;;;;;;1.60;0.97;;;;;;;13.37;100.00;101336.72;6066627;23;20774;-76
2024/02/15 11:04:09;;;;;;;1.10;1.00;;;;;;;13.37;100.00;101336.72;6102110;23;20192;-76
2024/02/15 11:06:39;;;;;;;1.53;1.20;;;;;;;13.43;100.00;101334.63;6101797;23;20631;-76
2024/02/15 11:09:11;;;;;;;2.47;0.97;;;;;;;13.49;100.00;101328.81;6101363;23;20241;-76
2024/02/15 11:11:38;;;;;;;1.73;1.40;;;;;;;13.57;100.00;101316.56;6067146;23;20631;-76
2024/02/15 11:14:28;;;;;;;1.30;1.10;;;;;;;13.65;100.00;101313.81;6065904;23;20181;-76
2024/02/15 11:16:56;;;;;;;2.20;1.50;;;;;;;13.73;100.00;101312.19;6102177;23;20170;-75
2024/02/15 11:19:47;;;;;;;2.97;1.33;;;;;;;13.80;100.00;101307.91;6101662;23;20781;-76
2024/02/15 11:22:15;;;;;;;0.83;0.80;;;;;;;13.86;100.00;101309.22;6102341;23;20168;-75
2024/02/15 11:24:48;;;;;;;2.30;1.23;;;;;;;13.97;100.00;101312.25;6101408;23;20176;-76
2024/02/15 11:27:25;;;;;;;2.53;1.17;;;;;;;14.03;100.00;101311.69;6101201;23;20166;-76
2024/02/15 11:29:55;;;;;;;3.73;2.30;;;;;;;14.06;100.00;101295.09;6101653;23;20170;-76
2024/02/15 11:32:44;;;;;;;2.33;1.80;;;;;;;14.08;100.00;101292.88;6101730;23;20170;-75
2024/02/15 11:35:11;;;;;;;2.57;1.83;;;;;;;14.09;100.00;101291.00;6101351;23;20174;-76